首页
METAR-TAF:

METAR-TAF

机场 :

Mahshahr, 伊朗

纬度: 30-33-23N, 经度: 049-09-07E, 海拔: 2米

当前天气观测

该预报发布于55分钟前的00:00 UTC
风速4节,风向东南
温度 14°C
湿度 94%
气压 1014 hPa
能見度: 5000
少量云层高于3000英尺, 积雨云.
散云层高于3500英尺
雷暴, 雨, 轻雾

METAR: OIAM 080000Z 13004KT 5000 TSRA BR FEW030CB SCT035 14/13 Q1014

时间: 04:25 (00:55 UTC)


TAF: 丢失

超过4000个机场的气象观测和天气预报(METAR&TAF报告)。

可查询的气象台以黄色和红色小点在地图上表示。

将鼠标移到小点上方,可查看气象台名称。

然后点击查看天气观测和预报。

如需切换地图:点击带黑十字的绿色按钮放大地图;点击带横线的绿色按钮缩小地图;或者点击绿色箭头查看邻近地区的地图。


METAR-TAF: